createdAt,value
2023-02-23T00:00:25.919Z,0.00
2023-02-23T00:05:25.850Z,0.00
2023-02-23T00:10:25.776Z,0.00
2023-02-23T00:15:25.735Z,0.00
2023-02-23T00:20:25.621Z,0.00
2023-02-23T00:25:25.616Z,0.00
2023-02-23T00:30:25.522Z,0.00
2023-02-23T00:35:25.457Z,0.00
2023-02-23T00:40:25.390Z,0.00
2023-02-23T00:45:25.444Z,0.00
2023-02-23T00:50:25.270Z,0.00
2023-02-23T00:55:25.212Z,0.00
2023-02-23T01:00:25.142Z,0.00
2023-02-23T01:05:44.137Z,0.00
2023-02-23T01:10:36.528Z,0.00
2023-02-23T01:15:36.470Z,0.00
2023-02-23T01:20:36.400Z,0.00
2023-02-23T01:25:36.306Z,0.00
2023-02-23T01:30:36.307Z,0.00
2023-02-23T01:35:36.186Z,0.00
2023-02-23T01:40:36.134Z,0.00
2023-02-23T01:45:36.065Z,0.00
2023-02-23T01:50:36.018Z,0.00
2023-02-23T01:55:35.914Z,0.00
2023-02-23T02:00:35.878Z,0.00
2023-02-23T02:05:35.795Z,0.00
2023-02-23T02:10:35.734Z,0.00
2023-02-23T02:15:35.657Z,0.00
2023-02-23T02:20:35.603Z,0.00
2023-02-23T02:25:35.519Z,0.00
2023-02-23T02:30:35.492Z,0.00
2023-02-23T02:35:35.370Z,0.00
2023-02-23T02:40:35.360Z,0.00
2023-02-23T02:45:35.281Z,0.00
2023-02-23T02:50:35.227Z,0.00
2023-02-23T02:55:35.136Z,0.00
2023-02-23T03:00:35.075Z,0.00
2023-02-23T03:05:35.015Z,0.00
2023-02-23T03:10:34.961Z,0.00
2023-02-23T03:15:34.903Z,0.00
2023-02-23T03:20:34.829Z,0.00
2023-02-23T03:25:34.757Z,0.00
2023-02-23T03:30:34.684Z,0.00
2023-02-23T03:35:34.625Z,0.00
2023-02-23T03:40:34.565Z,0.00
2023-02-23T03:45:34.476Z,0.00
2023-02-23T03:50:34.424Z,0.00
2023-02-23T03:55:34.435Z,0.00
2023-02-23T04:00:34.296Z,0.00
2023-02-23T04:05:34.225Z,0.00
2023-02-23T04:10:34.156Z,0.00
2023-02-23T04:15:34.077Z,0.00
2023-02-23T04:20:34.120Z,0.00
2023-02-23T04:25:33.949Z,0.00
2023-02-23T04:30:33.923Z,0.00
2023-02-23T04:35:33.873Z,0.00
2023-02-23T04:40:33.781Z,0.00
2023-02-23T04:45:33.695Z,0.00
2023-02-23T04:50:33.646Z,0.00
2023-02-23T04:55:33.552Z,0.00
2023-02-23T05:00:33.505Z,0.00
2023-02-23T05:05:33.430Z,0.00
2023-02-23T05:10:33.483Z,0.00
2023-02-23T05:15:47.824Z,0.00
2023-02-23T05:20:40.180Z,0.00
2023-02-23T05:25:40.151Z,0.00
2023-02-23T05:30:40.076Z,0.00
2023-02-23T05:35:40.000Z,0.00
2023-02-23T05:40:39.917Z,0.00
2023-02-23T05:45:39.844Z,0.00
2023-02-23T05:50:40.097Z,0.00
2023-02-23T05:55:39.743Z,0.00
2023-02-23T06:00:39.630Z,0.00
2023-02-23T06:05:39.784Z,0.00
2023-02-23T06:10:39.512Z,0.00
2023-02-23T06:15:39.830Z,0.00
2023-02-23T06:20:40.392Z,4.00
2023-02-23T06:25:39.339Z,8.00
2023-02-23T06:30:39.324Z,8.00
2023-02-23T06:35:39.221Z,16.00
2023-02-23T06:40:39.118Z,24.00
2023-02-23T06:45:39.079Z,36.00
2023-02-23T06:50:38.999Z,56.00
2023-02-23T06:55:38.964Z,76.00
2023-02-23T07:00:38.875Z,148.00
2023-02-23T07:05:38.813Z,220.00
2023-02-23T07:10:38.726Z,196.00
2023-02-23T07:15:38.671Z,176.00
2023-02-23T07:20:38.589Z,216.00
2023-02-23T07:25:38.567Z,260.00
2023-02-23T07:30:38.494Z,288.00
2023-02-23T07:35:38.426Z,384.00
2023-02-23T07:40:38.331Z,464.00
2023-02-23T07:45:38.321Z,444.00
2023-02-23T07:50:38.206Z,508.00
2023-02-23T07:55:38.148Z,572.00
2023-02-23T08:00:38.082Z,668.00
2023-02-23T08:05:38.013Z,916.00
2023-02-23T08:10:37.941Z,752.00
2023-02-23T08:15:37.903Z,776.00
2023-02-23T08:20:37.805Z,740.00
2023-02-23T08:25:37.739Z,632.00
2023-02-23T08:30:37.849Z,772.00
2023-02-23T08:35:37.629Z,1000.00
2023-02-23T08:40:37.544Z,1220.00
2023-02-23T08:45:37.489Z,1600.00
2023-02-23T08:50:37.422Z,1392.00
2023-02-23T08:55:37.355Z,1312.00
2023-02-23T09:00:37.268Z,1340.00
2023-02-23T09:05:37.269Z,1628.00
2023-02-23T09:10:37.144Z,1660.00
2023-02-23T09:15:37.180Z,1544.00
2023-02-23T09:20:37.018Z,1240.00
2023-02-23T09:25:36.944Z,1144.00
2023-02-23T09:30:36.912Z,1144.00
2023-02-23T09:35:36.834Z,1064.00
2023-02-23T09:40:36.781Z,1044.00
2023-02-23T09:45:36.647Z,1264.00
2023-02-23T09:50:36.640Z,1132.00
2023-02-23T09:55:36.525Z,1212.00
2023-02-23T10:00:36.538Z,1088.00
2023-02-23T10:05:36.437Z,1108.00
2023-02-23T10:10:36.437Z,1404.00
2023-02-23T10:15:36.303Z,1504.00
2023-02-23T10:20:36.247Z,1332.00
2023-02-23T10:25:36.163Z,1036.00
2023-02-23T10:30:36.170Z,1184.00
2023-02-23T10:35:36.005Z,1612.00
2023-02-23T10:40:36.039Z,2628.00
2023-02-23T10:45:35.884Z,2632.00
2023-02-23T10:50:35.867Z,2628.00
2023-02-23T10:55:35.754Z,2652.00
2023-02-23T11:00:35.718Z,2564.00
2023-02-23T11:05:35.642Z,2632.00
2023-02-23T11:10:35.568Z,2496.00
2023-02-23T11:15:49.768Z,2320.00
2023-02-23T11:20:36.430Z,1960.00
2023-02-23T11:25:36.180Z,1516.00
2023-02-23T11:30:35.337Z,1352.00
2023-02-23T11:35:36.244Z,1880.00
2023-02-23T11:40:35.198Z,2100.00
2023-02-23T11:45:35.145Z,2008.00
2023-02-23T11:50:35.033Z,1768.00
2023-02-23T11:55:34.984Z,2052.00
2023-02-23T12:00:34.905Z,1980.00
2023-02-23T12:05:34.850Z,2804.00
2023-02-23T12:10:34.837Z,3252.00
2023-02-23T12:15:34.712Z,3144.00
2023-02-23T12:20:34.656Z,3072.00
2023-02-23T12:25:34.612Z,3164.00
2023-02-23T12:30:34.513Z,3048.00
2023-02-23T12:35:34.450Z,3224.00
2023-02-23T12:40:34.363Z,3460.00
2023-02-23T12:45:34.412Z,2948.00
2023-02-23T12:50:34.228Z,1968.00
2023-02-23T12:55:34.189Z,1708.00
2023-02-23T13:00:34.122Z,1656.00
2023-02-23T13:05:34.033Z,1772.00
2023-02-23T13:10:33.976Z,1428.00
2023-02-23T13:15:33.908Z,1256.00
2023-02-23T13:20:33.824Z,1356.00
2023-02-23T13:25:33.777Z,1464.00
2023-02-23T13:30:33.835Z,1392.00
2023-02-23T13:35:33.649Z,1228.00
2023-02-23T13:40:33.579Z,1244.00
2023-02-23T13:45:33.515Z,1116.00
2023-02-23T13:50:33.436Z,1172.00
2023-02-23T13:55:47.103Z,1180.00
2023-02-23T14:00:34.318Z,1040.00
2023-02-23T14:05:33.245Z,856.00
2023-02-23T14:10:33.169Z,704.00
2023-02-23T14:15:33.116Z,816.00
2023-02-23T14:20:33.036Z,856.00
2023-02-23T14:25:32.995Z,832.00
2023-02-23T14:30:32.969Z,848.00
2023-02-23T14:35:32.878Z,972.00
2023-02-23T14:40:32.815Z,920.00
2023-02-23T14:45:32.786Z,808.00
2023-02-23T14:50:32.646Z,756.00
2023-02-23T14:55:32.633Z,1048.00
2023-02-23T15:00:32.716Z,1080.00
2023-02-23T15:05:32.480Z,848.00
2023-02-23T15:10:32.370Z,864.00
2023-02-23T15:15:32.341Z,608.00
2023-02-23T15:20:32.401Z,404.00
2023-02-23T15:25:32.178Z,348.00
2023-02-23T15:30:32.128Z,484.00
2023-02-23T15:35:32.070Z,436.00
2023-02-23T15:40:31.982Z,340.00
2023-02-23T15:45:31.980Z,304.00
2023-02-23T15:50:36.977Z,268.00
2023-02-23T15:55:32.816Z,280.00
2023-02-23T16:00:31.725Z,276.00
2023-02-23T16:05:35.397Z,284.00
2023-02-23T16:10:32.642Z,236.00
2023-02-23T16:15:31.505Z,208.00
2023-02-23T16:20:31.478Z,212.00
2023-02-23T16:25:31.402Z,176.00
2023-02-23T16:30:31.334Z,196.00
2023-02-23T16:35:31.271Z,196.00
2023-02-23T16:40:31.215Z,164.00
2023-02-23T16:45:31.131Z,76.00
2023-02-23T16:50:31.066Z,48.00
2023-02-23T16:55:31.005Z,32.00
2023-02-23T17:00:30.929Z,28.00
2023-02-23T17:05:30.899Z,12.00
2023-02-23T17:10:30.857Z,8.00
2023-02-23T17:15:30.752Z,4.00
2023-02-23T17:20:30.664Z,4.00
2023-02-23T17:25:30.634Z,0.00
2023-02-23T17:30:30.598Z,0.00
2023-02-23T17:35:30.482Z,0.00
2023-02-23T17:40:30.424Z,0.00
2023-02-23T17:45:30.369Z,0.00
2023-02-23T17:50:30.269Z,0.00
2023-02-23T17:55:30.231Z,0.00
2023-02-23T18:00:30.151Z,0.00
2023-02-23T18:05:30.123Z,0.00
2023-02-23T18:10:30.001Z,0.00
2023-02-23T18:15:29.996Z,0.00
2023-02-23T18:20:29.856Z,0.00
2023-02-23T18:25:29.808Z,0.00
2023-02-23T18:30:29.755Z,0.00
2023-02-23T18:35:29.693Z,0.00
2023-02-23T18:40:29.714Z,0.00
2023-02-23T18:45:29.557Z,0.00
2023-02-23T18:50:29.525Z,0.00
2023-02-23T18:55:29.430Z,0.00
2023-02-23T19:00:29.343Z,0.00
2023-02-23T19:05:29.444Z,0.00
2023-02-23T19:10:29.205Z,0.00
2023-02-23T19:15:29.635Z,0.00
2023-02-23T19:20:29.077Z,0.00
2023-02-23T19:25:29.247Z,0.00
2023-02-23T19:30:28.954Z,0.00
2023-02-23T19:35:28.959Z,0.00
2023-02-23T19:40:28.851Z,0.00
2023-02-23T19:45:28.820Z,0.00
2023-02-23T19:50:28.692Z,0.00
2023-02-23T19:55:28.678Z,0.00
2023-02-23T20:00:28.590Z,0.00
2023-02-23T20:05:28.617Z,0.00
2023-02-23T20:10:28.460Z,0.00
2023-02-23T20:15:28.370Z,0.00
2023-02-23T20:20:28.326Z,0.00
2023-02-23T20:25:28.253Z,0.00
2023-02-23T20:30:28.260Z,0.00
2023-02-23T20:35:28.146Z,0.00
2023-02-23T20:40:28.080Z,0.00
2023-02-23T20:45:28.055Z,0.00
2023-02-23T20:50:27.948Z,0.00
2023-02-23T20:55:27.985Z,0.00
2023-02-23T21:00:27.880Z,0.00
2023-02-23T21:05:27.733Z,0.00
2023-02-23T21:10:27.653Z,0.00
2023-02-23T21:15:27.643Z,0.00
2023-02-23T21:20:27.580Z,0.00
2023-02-23T21:25:27.477Z,0.00
2023-02-23T21:30:27.363Z,0.00
2023-02-23T21:35:27.354Z,0.00
2023-02-23T21:40:27.329Z,0.00
2023-02-23T21:45:27.198Z,0.00
2023-02-23T21:50:27.160Z,0.00
2023-02-23T21:55:27.078Z,0.00
2023-02-23T22:00:26.989Z,0.00
2023-02-23T22:05:26.905Z,0.00
2023-02-23T22:10:26.840Z,0.00
2023-02-23T22:15:26.777Z,0.00
2023-02-23T22:20:26.727Z,0.00
2023-02-23T22:25:26.652Z,0.00
2023-02-23T22:30:26.579Z,0.00
2023-02-23T22:35:26.550Z,0.00
2023-02-23T22:40:26.489Z,0.00
2023-02-23T22:45:26.384Z,0.00
2023-02-23T22:50:26.307Z,0.00
2023-02-23T22:55:26.259Z,0.00
2023-02-23T23:00:26.198Z,0.00
2023-02-23T23:05:26.141Z,0.00
2023-02-23T23:10:26.049Z,0.00
2023-02-23T23:15:26.018Z,0.00
2023-02-23T23:20:26.113Z,0.00
2023-02-23T23:25:27.673Z,0.00
2023-02-23T23:30:25.875Z,0.00
2023-02-23T23:35:25.755Z,0.00
2023-02-23T23:40:25.660Z,0.00
2023-02-23T23:45:25.611Z,0.00
2023-02-23T23:50:25.536Z,0.00
2023-02-23T23:55:25.476Z,0.00
